Terminal Aerodrome Forecast
Issued by NWS

Home | Current Version | Previous Version | Text Only | Print | Product List | Glossary On
Versions: 1 2 3 4 5 6 7 8 9 10 11 12 13
000
FTUS43 KFGF 250520
TAFDVL
TAF
KDVL 250520Z 2506/2606 16012KT P6SM SCT250
     FM250800 17007KT P6SM VCTS BKN040CB OVC080
     FM251100 19008KT P6SM BKN120
     FM251400 27008KT P6SM SCT220
     FM260100 33006KT P6SM SKC=

USA.gov is the U.S. government's official web portal to all federal, state and local government web resources and services.